createdAt,value
2023-04-24T00:00:11.214Z,13.04
2023-04-24T00:02:41.234Z,13.02
2023-04-24T00:05:08.625Z,13.08
2023-04-24T00:07:35.495Z,13.11
2023-04-24T00:10:02.079Z,13.08
2023-04-24T00:12:30.739Z,13.02
2023-04-24T00:14:57.294Z,12.96
2023-04-24T00:17:23.992Z,12.88
2023-04-24T00:19:52.262Z,12.80
2023-04-24T00:22:19.375Z,12.71
2023-04-24T00:24:46.028Z,12.62
2023-04-24T00:27:12.568Z,12.56
2023-04-24T00:29:39.167Z,12.47
2023-04-24T00:32:05.815Z,12.43
2023-04-24T00:34:33.502Z,12.43
2023-04-24T00:37:00.073Z,12.41
2023-04-24T00:39:26.763Z,12.33
2023-04-24T00:41:53.633Z,12.28
2023-04-24T00:44:20.856Z,12.30
2023-04-24T00:46:48.366Z,12.27
2023-04-24T00:49:15.007Z,12.19
2023-04-24T00:51:41.786Z,12.12
2023-04-24T00:54:08.360Z,12.03
2023-04-24T00:56:35.032Z,11.96
2023-04-24T00:59:01.993Z,11.90
2023-04-24T01:01:28.581Z,11.84
2023-04-24T01:03:56.317Z,11.78
2023-04-24T01:06:23.498Z,11.74
2023-04-24T01:08:50.850Z,11.72
2023-04-24T01:11:17.455Z,11.65
2023-04-24T01:13:44.195Z,11.61
2023-04-24T01:16:11.000Z,11.57
2023-04-24T01:18:38.212Z,11.57
2023-04-24T01:21:05.454Z,11.56
2023-04-24T01:23:32.016Z,11.56
2023-04-24T01:25:58.699Z,11.51
2023-04-24T01:28:25.367Z,11.55
2023-04-24T01:30:52.177Z,11.61
2023-04-24T01:33:19.159Z,11.66
2023-04-24T01:35:45.953Z,11.67
2023-04-24T01:38:12.579Z,11.67
2023-04-24T01:40:39.323Z,11.69
2023-04-24T01:43:06.246Z,11.74
2023-04-24T01:45:32.862Z,11.74
2023-04-24T01:47:59.890Z,11.73
2023-04-24T01:50:26.779Z,11.71
2023-04-24T01:52:53.454Z,11.67
2023-04-24T01:55:20.047Z,11.73
2023-04-24T01:57:47.416Z,11.67
2023-04-24T02:00:14.137Z,11.63
2023-04-24T02:02:42.383Z,11.65
2023-04-24T02:05:09.961Z,11.67
2023-04-24T02:07:36.613Z,11.62
2023-04-24T02:10:03.681Z,11.58
2023-04-24T02:12:30.312Z,11.57
2023-04-24T02:14:56.920Z,11.56
2023-04-24T02:17:23.691Z,11.56
2023-04-24T02:19:50.418Z,11.54
2023-04-24T02:22:17.008Z,11.50
2023-04-24T02:24:43.592Z,11.49
2023-04-24T02:27:10.895Z,11.46
2023-04-24T02:29:37.411Z,11.46
2023-04-24T02:32:04.124Z,11.47
2023-04-24T02:34:30.713Z,11.47
2023-04-24T02:36:57.306Z,11.48
2023-04-24T02:39:24.124Z,11.48
2023-04-24T02:41:50.793Z,11.49
2023-04-24T02:44:18.318Z,11.49
2023-04-24T02:46:44.925Z,11.46
2023-04-24T02:49:13.064Z,11.46
2023-04-24T02:51:42.134Z,11.48
2023-04-24T02:54:10.213Z,11.55
2023-04-24T02:56:36.993Z,11.65
2023-04-24T02:59:03.902Z,11.69
2023-04-24T03:01:30.629Z,11.68
2023-04-24T03:03:57.423Z,11.60
2023-04-24T03:06:24.163Z,11.62
2023-04-24T03:08:50.947Z,11.57
2023-04-24T03:11:17.464Z,11.62
2023-04-24T03:13:43.993Z,11.60
2023-04-24T03:16:10.604Z,11.54
2023-04-24T03:18:37.105Z,11.54
2023-04-24T03:21:04.557Z,11.55
2023-04-24T03:23:31.095Z,11.63
2023-04-24T03:25:57.723Z,11.62
2023-04-24T03:28:24.386Z,11.63
2023-04-24T03:30:50.942Z,11.65
2023-04-24T03:33:17.600Z,11.69
2023-04-24T03:35:44.229Z,11.69
2023-04-24T03:38:11.604Z,11.69
2023-04-24T03:40:38.199Z,11.69
2023-04-24T03:43:04.750Z,11.73
2023-04-24T03:45:31.312Z,11.79
2023-04-24T03:47:57.993Z,11.84
2023-04-24T03:50:24.681Z,11.89
2023-04-24T03:52:51.465Z,11.93
2023-04-24T03:55:18.106Z,11.94
2023-04-24T03:57:44.770Z,11.96
2023-04-24T04:00:11.728Z,12.03
2023-04-24T04:02:38.508Z,12.09
2023-04-24T04:05:06.143Z,12.14
2023-04-24T04:07:32.734Z,12.18
2023-04-24T04:09:59.428Z,12.26
2023-04-24T04:12:26.014Z,12.32
2023-04-24T04:14:52.607Z,12.39
2023-04-24T04:17:19.190Z,12.46
2023-04-24T04:19:45.941Z,12.49
2023-04-24T04:22:12.569Z,12.55
2023-04-24T04:24:41.617Z,12.63
2023-04-24T04:27:09.220Z,12.69
2023-04-24T04:29:36.851Z,12.74
2023-04-24T04:32:03.668Z,12.80
2023-04-24T04:34:30.878Z,12.86
2023-04-24T04:37:00.498Z,12.96
2023-04-24T04:39:27.096Z,13.03
2023-04-24T04:41:53.969Z,13.09
2023-04-24T04:44:20.686Z,13.12
2023-04-24T04:46:48.340Z,13.17
2023-04-24T04:49:17.633Z,13.23
2023-04-24T04:51:44.241Z,13.27
2023-04-24T04:54:10.815Z,13.33
2023-04-24T04:56:37.323Z,13.41
2023-04-24T04:59:04.097Z,13.51
2023-04-24T05:01:30.761Z,13.59
2023-04-24T05:03:57.581Z,13.63
2023-04-24T05:06:24.661Z,13.70
2023-04-24T05:08:52.210Z,13.77
2023-04-24T05:11:18.751Z,13.84
2023-04-24T05:13:45.460Z,13.92
2023-04-24T05:16:12.067Z,13.98
2023-04-24T05:18:38.718Z,14.06
2023-04-24T05:21:05.287Z,14.14
2023-04-24T05:23:31.861Z,14.22
2023-04-24T05:25:58.533Z,14.31
2023-04-24T05:28:29.407Z,14.37
2023-04-24T05:30:57.096Z,14.46
2023-04-24T05:33:24.080Z,14.54
2023-04-24T05:35:50.583Z,14.60
2023-04-24T05:38:20.747Z,14.68
2023-04-24T05:40:47.291Z,14.77
2023-04-24T05:43:13.974Z,14.85
2023-04-24T05:45:40.689Z,14.93
2023-04-24T05:48:07.335Z,15.01
2023-04-24T05:50:36.191Z,15.07
2023-04-24T05:53:03.612Z,15.19
2023-04-24T05:55:31.256Z,15.27
2023-04-24T05:57:57.907Z,15.35
2023-04-24T06:00:25.466Z,15.42
2023-04-24T06:02:53.837Z,15.53
2023-04-24T06:05:21.065Z,15.65
2023-04-24T06:07:47.693Z,15.73
2023-04-24T06:10:14.239Z,15.87
2023-04-24T06:12:40.819Z,16.02
2023-04-24T06:15:08.153Z,16.08
2023-04-24T06:17:34.783Z,16.13
2023-04-24T06:20:01.361Z,16.17
2023-04-24T06:22:28.006Z,16.23
2023-04-24T06:24:54.593Z,16.29
2023-04-24T06:27:21.116Z,16.34
2023-04-24T06:29:53.704Z,16.43
2023-04-24T06:32:20.452Z,16.50
2023-04-24T06:34:47.126Z,16.59
2023-04-24T06:37:13.688Z,16.68
2023-04-24T06:39:40.279Z,16.78
2023-04-24T06:42:06.914Z,16.87
2023-04-24T06:44:33.476Z,16.92
2023-04-24T06:47:00.030Z,16.98
2023-04-24T06:49:27.108Z,17.02
2023-04-24T06:51:53.650Z,17.11
2023-04-24T06:54:20.198Z,17.14
2023-04-24T06:56:48.793Z,17.17
2023-04-24T06:59:15.607Z,17.17
2023-04-24T07:01:42.194Z,17.19
2023-04-24T07:04:08.915Z,17.23
2023-04-24T07:06:36.928Z,17.36
2023-04-24T07:09:04.624Z,17.36
2023-04-24T07:11:31.503Z,17.39
2023-04-24T07:13:58.207Z,17.40
2023-04-24T07:16:25.100Z,17.41
2023-04-24T07:18:52.503Z,17.42
2023-04-24T07:21:19.036Z,17.44
2023-04-24T07:23:45.663Z,17.44
2023-04-24T07:26:12.236Z,17.41
2023-04-24T07:28:38.814Z,17.44
2023-04-24T07:31:05.877Z,17.45
2023-04-24T07:33:32.445Z,17.47
2023-04-24T07:35:59.760Z,17.35
2023-04-24T07:38:26.941Z,17.41
2023-04-24T07:40:53.630Z,17.43
2023-04-24T07:43:21.136Z,17.49
2023-04-24T07:45:47.810Z,17.53
2023-04-24T07:48:17.334Z,17.52
2023-04-24T07:50:43.918Z,17.61
2023-04-24T07:53:10.631Z,17.70
2023-04-24T07:55:37.207Z,17.78
2023-04-24T07:58:03.840Z,17.83
2023-04-24T08:00:30.622Z,17.85
2023-04-24T08:02:57.389Z,17.91
2023-04-24T08:05:26.677Z,17.93
2023-04-24T08:07:53.641Z,17.97
2023-04-24T08:10:20.217Z,18.03
2023-04-24T08:12:46.813Z,17.94
2023-04-24T08:15:13.519Z,18.01
2023-04-24T08:17:40.165Z,17.98
2023-04-24T08:20:07.113Z,17.99
2023-04-24T08:22:33.720Z,18.05
2023-04-24T08:25:00.940Z,18.16
2023-04-24T08:27:27.516Z,18.27
2023-04-24T08:29:54.539Z,18.40
2023-04-24T08:32:21.293Z,18.48
2023-04-24T08:34:49.533Z,18.55
2023-04-24T08:37:16.785Z,18.65
2023-04-24T08:39:43.639Z,18.67
2023-04-24T08:42:12.496Z,18.56
2023-04-24T08:44:39.181Z,18.55
2023-04-24T08:47:06.284Z,18.51
2023-04-24T08:49:33.127Z,18.41
2023-04-24T08:52:00.871Z,18.44
2023-04-24T08:54:27.575Z,18.55
2023-04-24T08:56:55.118Z,18.68
2023-04-24T08:59:22.420Z,18.89
2023-04-24T09:01:49.359Z,19.08
2023-04-24T09:04:21.231Z,19.17
2023-04-24T09:06:48.602Z,19.24
2023-04-24T09:09:17.170Z,19.26
2023-04-24T09:11:43.727Z,19.16
2023-04-24T09:14:10.925Z,19.13
2023-04-24T09:16:37.630Z,19.16
2023-04-24T09:19:04.448Z,19.13
2023-04-24T09:21:35.264Z,19.19
2023-04-24T09:24:03.568Z,19.16
2023-04-24T09:26:32.382Z,19.09
2023-04-24T09:28:59.366Z,19.04
2023-04-24T09:31:27.786Z,19.10
2023-04-24T09:34:01.835Z,19.23
2023-04-24T09:36:30.091Z,19.39
2023-04-24T09:39:00.622Z,19.57
2023-04-24T09:41:28.406Z,19.70
2023-04-24T09:43:55.600Z,19.80
2023-04-24T09:46:25.047Z,19.87
2023-04-24T09:48:51.779Z,19.83
2023-04-24T09:51:33.853Z,19.90
2023-04-24T09:54:00.416Z,20.02
2023-04-24T09:56:27.520Z,20.10
2023-04-24T09:58:54.141Z,20.14
2023-04-24T10:01:35.188Z,20.18
2023-04-24T10:04:02.260Z,20.10
2023-04-24T10:06:35.290Z,19.94
2023-04-24T10:09:01.839Z,19.78
2023-04-24T10:11:29.147Z,19.67
2023-04-24T10:13:56.750Z,19.60
2023-04-24T10:16:23.743Z,19.81
2023-04-24T10:18:50.571Z,20.70
2023-04-24T10:21:18.041Z,21.69
2023-04-24T10:23:46.777Z,22.39
2023-04-24T10:26:18.294Z,22.99
2023-04-24T10:28:48.472Z,22.96
2023-04-24T10:31:15.949Z,23.05
2023-04-24T10:33:43.647Z,23.02
2023-04-24T10:36:11.786Z,22.68
2023-04-24T10:38:41.192Z,22.10
2023-04-24T10:41:09.539Z,21.50
2023-04-24T10:43:36.498Z,21.20
2023-04-24T10:46:04.326Z,21.51
2023-04-24T10:48:31.095Z,22.64
2023-04-24T10:50:57.624Z,23.69
2023-04-24T10:53:25.137Z,24.53
2023-04-24T10:55:52.680Z,25.10
2023-04-24T10:58:26.379Z,25.84
2023-04-24T11:01:02.175Z,26.44
2023-04-24T11:03:30.024Z,26.82
2023-04-24T11:06:01.252Z,27.16
2023-04-24T11:08:29.300Z,27.16
2023-04-24T11:10:58.459Z,26.79
2023-04-24T11:13:49.236Z,26.72
2023-04-24T11:16:16.850Z,26.81
2023-04-24T11:18:47.216Z,26.93
2023-04-24T11:21:14.076Z,26.91
2023-04-24T11:23:41.915Z,26.76
2023-04-24T11:26:18.617Z,26.69
2023-04-24T11:28:46.283Z,26.71
2023-04-24T11:31:31.652Z,26.98
2023-04-24T11:33:58.232Z,27.33
2023-04-24T11:36:24.835Z,27.03
2023-04-24T11:38:51.492Z,25.92
2023-04-24T11:41:19.406Z,25.05
2023-04-24T11:43:46.359Z,23.98
2023-04-24T11:46:13.878Z,24.52
2023-04-24T11:48:45.850Z,25.27
2023-04-24T11:51:13.385Z,26.10
2023-04-24T11:53:39.986Z,27.11
2023-04-24T11:56:06.946Z,27.85
2023-04-24T11:58:37.104Z,28.12
2023-04-24T12:01:03.897Z,27.61
2023-04-24T12:03:30.796Z,27.50
2023-04-24T12:06:11.071Z,27.75
2023-04-24T12:08:38.765Z,28.07
2023-04-24T12:11:08.118Z,27.79
2023-04-24T12:13:35.110Z,27.60
2023-04-24T12:16:05.888Z,27.43
2023-04-24T12:18:32.730Z,27.35
2023-04-24T12:21:19.154Z,27.43
2023-04-24T12:23:47.568Z,27.99
2023-04-24T12:26:21.029Z,28.25
2023-04-24T12:28:49.543Z,28.25
2023-04-24T12:31:17.002Z,27.68
2023-04-24T12:33:44.408Z,27.56
2023-04-24T12:36:13.226Z,28.07
2023-04-24T12:38:45.365Z,28.30
2023-04-24T12:41:13.492Z,28.34
2023-04-24T12:43:51.685Z,27.66
2023-04-24T12:46:19.855Z,27.40
2023-04-24T12:48:47.796Z,26.41
2023-04-24T12:51:14.438Z,25.77
2023-04-24T12:53:41.322Z,25.77
2023-04-24T12:56:08.067Z,25.96
2023-04-24T12:58:34.800Z,25.40
2023-04-24T13:01:02.110Z,24.74
2023-04-24T13:03:28.807Z,23.87
2023-04-24T13:05:55.488Z,23.17
2023-04-24T13:08:22.043Z,22.65
2023-04-24T13:10:48.727Z,22.39
2023-04-24T13:13:15.270Z,22.65
2023-04-24T13:15:41.788Z,23.23
2023-04-24T13:18:08.361Z,23.63
2023-04-24T13:20:36.604Z,24.52
2023-04-24T13:23:03.184Z,25.74
2023-04-24T13:25:32.197Z,26.61
2023-04-24T13:27:58.734Z,27.26
2023-04-24T13:30:25.318Z,27.70
2023-04-24T13:32:51.966Z,27.88
2023-04-24T13:35:18.623Z,27.89
2023-04-24T13:37:45.245Z,27.75
2023-04-24T13:40:12.051Z,27.89
2023-04-24T13:42:38.654Z,28.27
2023-04-24T13:45:17.808Z,28.37
2023-04-24T13:47:52.331Z,28.16
2023-04-24T13:50:19.358Z,28.14
2023-04-24T13:52:45.919Z,28.18
2023-04-24T13:55:12.567Z,27.84
2023-04-24T13:57:39.158Z,28.11
2023-04-24T14:00:07.882Z,28.07
2023-04-24T14:02:34.621Z,28.04
2023-04-24T14:05:01.577Z,27.77
2023-04-24T14:07:29.717Z,27.93
2023-04-24T14:09:56.337Z,28.43
2023-04-24T14:12:23.052Z,28.17
2023-04-24T14:14:49.658Z,27.88
2023-04-24T14:17:16.279Z,27.57
2023-04-24T14:19:42.927Z,27.52
2023-04-24T14:22:09.550Z,27.38
2023-04-24T14:24:36.060Z,27.38
2023-04-24T14:27:02.659Z,26.98
2023-04-24T14:29:29.255Z,26.10
2023-04-24T14:31:56.076Z,25.50
2023-04-24T14:34:22.688Z,25.43
2023-04-24T14:36:49.242Z,24.71
2023-04-24T14:39:15.924Z,23.85
2023-04-24T14:41:42.520Z,23.17
2023-04-24T14:44:09.030Z,23.02
2023-04-24T14:46:35.769Z,22.69
2023-04-24T14:49:02.511Z,22.33
2023-04-24T14:51:29.269Z,21.93
2023-04-24T14:53:57.514Z,21.66
2023-04-24T14:56:24.346Z,21.38
2023-04-24T14:58:50.936Z,21.21
2023-04-24T15:01:18.100Z,21.12
2023-04-24T15:03:45.334Z,21.27
2023-04-24T15:06:12.461Z,21.54
2023-04-24T15:08:39.008Z,21.70
2023-04-24T15:11:05.828Z,21.67
2023-04-24T15:13:32.466Z,21.56
2023-04-24T15:15:59.080Z,21.46
2023-04-24T15:18:25.689Z,21.21
2023-04-24T15:20:52.327Z,20.97
2023-04-24T15:23:18.904Z,20.68
2023-04-24T15:25:45.578Z,20.52
2023-04-24T15:28:12.678Z,20.47
2023-04-24T15:30:39.369Z,20.51
2023-04-24T15:33:06.495Z,20.49
2023-04-24T15:35:33.204Z,20.38
2023-04-24T15:37:59.774Z,20.25
2023-04-24T15:40:26.503Z,20.13
2023-04-24T15:42:53.180Z,20.09
2023-04-24T15:45:19.920Z,20.08
2023-04-24T15:47:49.084Z,20.09
2023-04-24T15:50:17.175Z,19.93
2023-04-24T15:52:43.891Z,19.91
2023-04-24T15:55:10.684Z,19.76
2023-04-24T15:57:37.453Z,19.68
2023-04-24T16:00:07.084Z,19.67
2023-04-24T16:02:34.328Z,19.56
2023-04-24T16:05:01.395Z,19.48
2023-04-24T16:07:28.085Z,19.31
2023-04-24T16:09:54.928Z,19.19
2023-04-24T16:12:27.847Z,19.15
2023-04-24T16:14:55.114Z,18.91
2023-04-24T16:17:21.878Z,18.81
2023-04-24T16:19:48.425Z,18.81
2023-04-24T16:22:14.966Z,18.72
2023-04-24T16:24:41.581Z,18.65
2023-04-24T16:27:08.164Z,18.58
2023-04-24T16:29:34.725Z,18.45
2023-04-24T16:32:01.266Z,18.36
2023-04-24T16:34:27.843Z,18.31
2023-04-24T16:36:54.539Z,18.25
2023-04-24T16:39:22.156Z,18.19
2023-04-24T16:41:49.814Z,18.12
2023-04-24T16:44:16.541Z,18.09
2023-04-24T16:46:43.134Z,18.04
2023-04-24T16:49:09.822Z,17.96
2023-04-24T16:51:36.444Z,17.92
2023-04-24T16:54:03.173Z,17.88
2023-04-24T16:56:29.801Z,17.85
2023-04-24T16:58:59.316Z,17.78
2023-04-24T17:01:26.131Z,17.67
2023-04-24T17:03:53.067Z,17.62
2023-04-24T17:06:20.247Z,17.59
2023-04-24T17:08:47.102Z,17.56
2023-04-24T17:11:14.083Z,17.52
2023-04-24T17:13:40.883Z,17.48
2023-04-24T17:16:07.476Z,17.41
2023-04-24T17:18:34.157Z,17.35
2023-04-24T17:21:00.747Z,17.34
2023-04-24T17:23:27.410Z,17.27
2023-04-24T17:25:54.026Z,17.20
2023-04-24T17:28:25.212Z,17.11
2023-04-24T17:30:51.871Z,17.06
2023-04-24T17:33:18.499Z,17.01
2023-04-24T17:35:45.086Z,16.96
2023-04-24T17:38:12.806Z,16.92
2023-04-24T17:40:40.341Z,16.89
2023-04-24T17:43:06.939Z,16.88
2023-04-24T17:45:33.553Z,16.85
2023-04-24T17:48:00.196Z,16.77
2023-04-24T17:50:26.852Z,16.73
2023-04-24T17:52:53.548Z,16.66
2023-04-24T17:55:20.221Z,16.63
2023-04-24T17:57:47.143Z,16.57
2023-04-24T18:00:14.000Z,16.54
2023-04-24T18:02:41.091Z,16.49
2023-04-24T18:05:07.750Z,16.45
2023-04-24T18:07:34.316Z,16.42
2023-04-24T18:10:00.874Z,16.46
2023-04-24T18:12:27.520Z,16.44
2023-04-24T18:15:06.188Z,16.39
2023-04-24T18:17:39.558Z,16.31
2023-04-24T18:20:06.467Z,16.27
2023-04-24T18:22:33.138Z,16.21
2023-04-24T18:24:59.826Z,16.23
2023-04-24T18:27:29.281Z,16.27
2023-04-24T18:29:55.996Z,16.22
2023-04-24T18:32:22.736Z,16.18
2023-04-24T18:34:49.451Z,16.16
2023-04-24T18:37:16.046Z,16.13
2023-04-24T18:39:42.729Z,16.08
2023-04-24T18:42:09.365Z,16.09
2023-04-24T18:44:38.855Z,16.12
2023-04-24T18:47:05.571Z,16.09
2023-04-24T18:49:32.170Z,15.99
2023-04-24T18:52:00.506Z,15.90
2023-04-24T18:54:28.409Z,15.86
2023-04-24T18:56:55.162Z,15.87
2023-04-24T18:59:21.942Z,15.86
2023-04-24T19:01:48.793Z,15.86
2023-04-24T19:04:16.285Z,15.88
2023-04-24T19:06:42.882Z,15.84
2023-04-24T19:09:09.424Z,15.83
2023-04-24T19:11:36.056Z,15.79
2023-04-24T19:14:05.534Z,15.77
2023-04-24T19:16:32.198Z,15.74
2023-04-24T19:18:58.785Z,15.70
2023-04-24T19:21:25.356Z,15.63
2023-04-24T19:23:52.939Z,15.50
2023-04-24T19:26:19.499Z,15.37
2023-04-24T19:28:46.120Z,15.27
2023-04-24T19:31:12.815Z,15.20
2023-04-24T19:33:39.385Z,15.14
2023-04-24T19:36:06.116Z,15.10
2023-04-24T19:38:32.975Z,15.08
2023-04-24T19:40:59.512Z,15.08
2023-04-24T19:43:26.109Z,15.07
2023-04-24T19:45:52.733Z,15.11
2023-04-24T19:48:19.485Z,15.13
2023-04-24T19:50:46.054Z,15.12
2023-04-24T19:53:12.730Z,15.14
2023-04-24T19:55:39.258Z,15.14
2023-04-24T19:58:05.876Z,15.13
2023-04-24T20:00:32.501Z,15.11
2023-04-24T20:02:59.207Z,15.06
2023-04-24T20:05:26.261Z,15.04
2023-04-24T20:07:52.967Z,15.01
2023-04-24T20:10:19.756Z,15.02
2023-04-24T20:12:46.580Z,14.98
2023-04-24T20:15:13.537Z,14.95
2023-04-24T20:17:40.074Z,14.89
2023-04-24T20:20:07.247Z,14.84
2023-04-24T20:22:38.734Z,14.80
2023-04-24T20:25:09.501Z,14.76
2023-04-24T20:27:36.315Z,14.74
2023-04-24T20:30:03.532Z,14.73
2023-04-24T20:32:31.716Z,14.65
2023-04-24T20:34:58.522Z,14.52
2023-04-24T20:37:25.411Z,14.50
2023-04-24T20:39:52.026Z,14.46
2023-04-24T20:42:19.580Z,14.39
2023-04-24T20:44:46.207Z,14.28
2023-04-24T20:47:12.837Z,14.18
2023-04-24T20:49:39.480Z,14.11
2023-04-24T20:52:06.577Z,14.03
2023-04-24T20:54:33.721Z,13.92
2023-04-24T20:57:01.908Z,13.83
2023-04-24T20:59:28.575Z,13.78
2023-04-24T21:01:55.175Z,13.77
2023-04-24T21:04:22.171Z,13.79
2023-04-24T21:06:48.859Z,13.78
2023-04-24T21:09:15.597Z,13.79
2023-04-24T21:11:42.587Z,13.80
2023-04-24T21:14:10.470Z,13.82
2023-04-24T21:16:37.577Z,13.83
2023-04-24T21:19:04.280Z,13.84
2023-04-24T21:21:30.838Z,13.82
2023-04-24T21:23:57.464Z,13.80
2023-04-24T21:26:24.074Z,13.77
2023-04-24T21:28:51.432Z,13.71
2023-04-24T21:31:17.985Z,13.61
2023-04-24T21:33:44.540Z,13.49
2023-04-24T21:36:11.115Z,13.40
2023-04-24T21:38:37.664Z,13.37
2023-04-24T21:41:04.249Z,13.36
2023-04-24T21:43:43.504Z,13.28
2023-04-24T21:46:11.165Z,13.23
2023-04-24T21:48:37.779Z,13.16
2023-04-24T21:51:04.317Z,13.08
2023-04-24T21:53:31.041Z,13.06
2023-04-24T21:55:57.755Z,13.05
2023-04-24T21:58:24.511Z,12.98
2023-04-24T22:00:51.100Z,12.89
2023-04-24T22:03:17.956Z,12.82
2023-04-24T22:05:44.950Z,12.75
2023-04-24T22:08:11.534Z,12.67
2023-04-24T22:10:38.119Z,12.63
2023-04-24T22:13:04.680Z,12.62
2023-04-24T22:15:31.651Z,12.62
2023-04-24T22:17:58.876Z,12.58
2023-04-24T22:20:26.027Z,12.55
2023-04-24T22:22:52.685Z,12.56
2023-04-24T22:25:19.302Z,12.58
2023-04-24T22:27:45.903Z,12.61
2023-04-24T22:30:12.606Z,12.65
2023-04-24T22:32:39.233Z,12.68
2023-04-24T22:35:06.273Z,12.63
2023-04-24T22:37:32.929Z,12.59
2023-04-24T22:40:02.235Z,12.63
2023-04-24T22:42:30.003Z,12.64
2023-04-24T22:44:56.670Z,12.62
2023-04-24T22:47:23.258Z,12.62
2023-04-24T22:49:49.879Z,12.60
2023-04-24T22:52:17.221Z,12.54
2023-04-24T22:54:43.791Z,12.51
2023-04-24T22:57:12.382Z,12.49
2023-04-24T22:59:39.072Z,12.48
2023-04-24T23:02:05.743Z,12.48
2023-04-24T23:04:32.499Z,12.44
2023-04-24T23:06:59.159Z,12.38
2023-04-24T23:09:25.817Z,12.39
2023-04-24T23:11:52.829Z,12.41
2023-04-24T23:14:19.476Z,12.40
2023-04-24T23:16:46.504Z,12.32
2023-04-24T23:19:13.359Z,12.24
2023-04-24T23:21:39.947Z,12.18
2023-04-24T23:24:06.670Z,12.19
2023-04-24T23:26:33.243Z,12.17
2023-04-24T23:29:00.080Z,12.16
2023-04-24T23:31:26.668Z,12.20
2023-04-24T23:33:53.252Z,12.22
2023-04-24T23:36:19.824Z,12.25
2023-04-24T23:38:50.281Z,12.27
2023-04-24T23:41:17.864Z,12.32
2023-04-24T23:43:44.483Z,12.32
2023-04-24T23:46:11.534Z,12.32
2023-04-24T23:48:38.182Z,12.33
2023-04-24T23:51:04.896Z,12.34
2023-04-24T23:53:31.662Z,12.33
2023-04-24T23:55:58.263Z,12.32
2023-04-24T23:58:24.804Z,12.34
